Aérodrome :
LOGIN :

S'inscrire | Disclaimer

   EN    FR    IT 

 










Légende :    VFR   VFR Marginal   IFR   IFR Intensif   IFR Très Intensif
Visi : 
Plafond : 
>= 8 km
>= 3000ft
5 à 8 km
1000 à 3000 ft
1500m à 5 km
500 à 1000 ft
800 à 1500m
200 à 500 ft
< 800m
< 200 ft
Symboles :   Orages  Brouillard  Fortes neiges  Fortes précipitations  Vent > 20 kt
SIGMETs :   Divers  Orages  Givrage  Turbulence  Onde Orograph.  Cendres Volcan.







- Altitude de l'aérodrome : 16 ft
- Code IATA : SDR


LEXJ - Santander Cantabria

DERNIER METAR :
  • 240930Z 07006KT 020V120 CAVOK 21/16 Q1020

METARs EXPIRÉS :
  • 240900Z 07008KT 030V110 9999 FEW017 19/15 Q1020
  • 240830Z 07007KT 020V110 9999 FEW035 19/15 Q1020
  • 240800Z VRB02KT 9999 FEW035 19/15 Q1020
  • 240730Z VRB02KT 9999 FEW035 18/14 Q1020
  • 240700Z 00000KT 9999 FEW035 17/14 Q1021

TAF TAF LEXJ
Valide du 24 à 09h jusqu'au 25 à 09h UTC


240800Z 2409/2509 07010KT 9999 FEW035 TX20/2412Z TN15/2504Z
PROB40
TEMPO 2412/2418 04015G25KT
BECMG 2418/2419 14007KT
PROB30
TEMPO 2501/2504 4500 BR
Pas de NOTAMs connus pour ce terrain.



MET'MAP, la Météo Aéronautique d'un coup d'oeil ! - Copyright ORBIFLY Décembre 2007 - Disclaimer

ORBIFLY MET'MAP TEAM :

Programmation & Développement : Alexandra Zaïnal
Conception & Développement : Baudouin d'Aumeries
Co-Programmation & Développement : Marc-Olivier Méhu
Soutien technique & logistique : Manuel Goepfert

Contact : metmap@orbifly.com




SOURCES & CREDITS :

   NOAA